SEAM/ATF METAR and TAF weather

Enter ICAO airport designator
Station Type Date Time Source
SEAM METAR 2019/06/17 12:00 UTC NOAA

SEAM 171200Z VRB02KT 9999 SCT010 BKN014 12/11 Q1031


Station Type Date Time Source
SEAM Decoded METAR 2019/06/17 12:00 UTC NOAA

Ambato / Chachoan, Ecuador (SEAM) 01-12S 078-34W
Jun 17, 2019 - 08:00 AM EDT / 2019.06.17 1200 UTC
Wind: Variable at 2 MPH (2 KT):0
Visibility: greater than 7 mile(s):0
Sky conditions: mostly cloudy
Temperature: 53 F (12 C)
Dew Point: 51 F (11 C)
Relative Humidity: 93%
Pressure (altimeter): 30.45 in. Hg (1031 hPa)
ob: SEAM 171200Z VRB02KT 9999 SCT010 BKN014 12/11 Q1031
cycle: 12

Station Type Date Time Source
SEAM TAF UTC NOAA

Error!

Example: see airport list